Time;durP1;ratioP1;P1;durP2;ratioP2;P2;SDS_P1;SDS_P2;PMS_P1;PMS_P2;Temp;Humidity;BMP_temperature;BMP_pressure;BME280_temperature;BME280_humidity;BME280_pressure;Samples;Min_cycle;Max_cycle;Signal;HPM_P1;HPM_P2
2022/10/24 00:01:51;;;;;;;0.82;0.82;;;;;;;;;;5035119;28;20040;-31
2022/10/24 00:04:18;;;;;;;0.75;0.75;;;;;;;;;;5034783;28;20055;-31
2022/10/24 00:06:44;;;;;;;0.95;0.95;;;;;;;;;;5034963;28;20384;-31
2022/10/24 00:09:10;;;;;;;0.88;0.88;;;;;;;;;;5034891;28;20030;-33
2022/10/24 00:11:37;;;;;;;1.25;1.25;;;;;;;;;;5035129;28;20032;-35
2022/10/24 00:14:03;;;;;;;1.00;1.00;;;;;;;;;;5034709;28;20106;-31
2022/10/24 00:16:29;;;;;;;1.35;1.25;;;;;;;;;;5034811;28;20029;-31
2022/10/24 00:18:56;;;;;;;1.40;1.30;;;;;;;;;;5034710;28;20033;-31
2022/10/24 00:21:22;;;;;;;1.33;1.20;;;;;;;;;;5034919;28;20072;-33
2022/10/24 00:23:48;;;;;;;1.63;1.17;;;;;;;;;;5034667;28;20083;-32
2022/10/24 00:26:15;;;;;;;1.00;1.00;;;;;;;;;;5034685;28;20021;-32
2022/10/24 00:28:41;;;;;;;1.30;1.20;;;;;;;;;;5034621;28;20033;-31
2022/10/24 00:31:11;;;;;;;0.98;0.93;;;;;;;;;;5034627;28;20107;-31
2022/10/24 00:33:37;;;;;;;1.05;1.00;;;;;;;;;;5034181;28;20125;-30
2022/10/24 00:36:03;;;;;;;0.82;0.82;;;;;;;;;;5034556;28;20369;-30
2022/10/24 00:38:29;;;;;;;1.08;0.98;;;;;;;;;;5034546;28;20103;-31
2022/10/24 00:40:56;;;;;;;1.02;0.88;;;;;;;;;;5017068;28;20025;-33
2022/10/24 00:43:24;;;;;;;0.90;0.90;;;;;;;;;;5034996;28;20028;-32
2022/10/24 00:45:55;;;;;;;1.27;1.05;;;;;;;;;;5035026;28;20022;-31
2022/10/24 00:48:24;;;;;;;0.98;0.98;;;;;;;;;;5034751;28;20329;-33
2022/10/24 00:50:58;;;;;;;1.20;1.20;;;;;;;;;;5034749;28;20034;-31
2022/10/24 00:53:25;;;;;;;2.25;1.65;;;;;;;;;;5034320;28;20073;-32
2022/10/24 00:55:53;;;;;;;1.30;1.20;;;;;;;;;;5034660;28;20051;-31
2022/10/24 00:58:21;;;;;;;1.02;1.00;;;;;;;;;;5034639;28;20113;-34
2022/10/24 01:00:47;;;;;;;1.10;1.00;;;;;;;;;;5034291;28;20480;-33
2022/10/24 01:03:13;;;;;;;1.10;1.10;;;;;;;;;;5034195;28;20095;-34
2022/10/24 01:05:45;;;;;;;1.38;1.23;;;;;;;;;;5034167;28;20045;-34
2022/10/24 01:08:11;;;;;;;1.30;1.20;;;;;;;;;;5034602;28;20048;-31
2022/10/24 01:10:43;;;;;;;1.02;1.00;;;;;;;;;;5016846;28;20377;-33
2022/10/24 01:13:29;;;;;;;0.93;0.93;;;;;;;;;;5034411;28;20116;-34
2022/10/24 01:15:55;;;;;;;3.05;1.52;;;;;;;;;;5035295;28;20025;-31
2022/10/24 01:18:29;;;;;;;2.60;0.95;;;;;;;;;;5034197;28;20111;-31
2022/10/24 01:20:59;;;;;;;1.00;0.88;;;;;;;;;;5034419;28;20132;-32
2022/10/24 01:23:40;;;;;;;1.00;0.90;;;;;;;;;;5034076;28;20026;-34
2022/10/24 01:26:06;;;;;;;;;;;;;;;;;;5034548;28;20148;-33
2022/10/24 01:28:40;;;;;;;1.80;1.70;;;;;;;;;;5034137;28;19971;-31
2022/10/24 01:31:11;;;;;;;0.93;0.93;;;;;;;;;;5034390;28;20036;-32
2022/10/24 01:33:40;;;;;;;1.33;1.23;;;;;;;;;;5034338;28;20049;-31
2022/10/24 01:36:14;;;;;;;1.38;1.27;;;;;;;;;;5034065;28;20025;-34
2022/10/24 01:38:46;;;;;;;1.77;1.20;;;;;;;;;;5034023;28;20029;-31
2022/10/24 01:41:14;;;;;;;1.10;1.10;;;;;;;;;;5034439;28;20037;-33
2022/10/24 01:43:47;;;;;;;2.13;1.48;;;;;;;;;;5034175;28;20038;-32
2022/10/24 01:46:15;;;;;;;1.48;1.38;;;;;;;;;;5035559;28;20026;-32
2022/10/24 01:48:45;;;;;;;1.30;1.17;;;;;;;;;;5037503;28;20029;-33
2022/10/24 01:51:13;;;;;;;1.38;1.27;;;;;;;;;;5037736;28;20095;-37
2022/10/24 01:53:40;;;;;;;1.52;1.15;;;;;;;;;;5037333;28;20031;-32
2022/10/24 01:56:06;;;;;;;1.25;1.15;;;;;;;;;;5037600;28;20396;-32
2022/10/24 01:58:32;;;;;;;1.35;1.25;;;;;;;;;;5037255;28;20041;-31
2022/10/24 02:01:01;;;;;;;1.33;1.23;;;;;;;;;;5037111;28;20444;-34
2022/10/24 02:03:31;;;;;;;1.15;1.08;;;;;;;;;;5037191;28;20026;-34
2022/10/24 02:06:03;;;;;;;1.40;1.30;;;;;;;;;;5037485;28;20104;-33
2022/10/24 02:08:31;;;;;;;1.33;1.17;;;;;;;;;;5037427;28;20040;-32
2022/10/24 02:11:00;;;;;;;1.20;1.10;;;;;;;;;;5037334;28;20053;-33
2022/10/24 02:13:32;;;;;;;1.70;1.23;;;;;;;;;;5036932;28;20051;-32
2022/10/24 02:15:59;;;;;;;1.42;1.30;;;;;;;;;;5036987;28;20029;-32
2022/10/24 02:18:26;;;;;;;1.13;1.02;;;;;;;;;;5036866;28;20030;-33
2022/10/24 02:21:06;;;;;;;1.23;1.13;;;;;;;;;;5036772;28;20044;-32
2022/10/24 02:23:45;;;;;;;1.15;1.13;;;;;;;;;;5036758;28;20030;-32
2022/10/24 02:26:17;;;;;;;1.20;1.10;;;;;;;;;;5037371;28;20456;-31
2022/10/24 02:28:45;;;;;;;1.38;1.27;;;;;;;;;;5037059;28;20103;-32
2022/10/24 02:31:16;;;;;;;1.70;1.20;;;;;;;;;;5036984;28;20034;-32
2022/10/24 02:33:44;;;;;;;1.15;1.05;;;;;;;;;;5036883;28;20033;-32
2022/10/24 02:36:11;;;;;;;1.10;1.10;;;;;;;;;;5036624;28;20021;-31
2022/10/24 02:38:38;;;;;;;1.48;1.38;;;;;;;;;;5036540;28;20025;-32
2022/10/24 02:41:07;;;;;;;1.40;1.30;;;;;;;;;;5036666;28;20033;-36
2022/10/24 02:43:34;;;;;;;1.33;1.23;;;;;;;;;;5036372;28;20029;-32
2022/10/24 02:46:01;;;;;;;1.02;1.02;;;;;;;;;;5036389;28;20053;-32
2022/10/24 02:48:32;;;;;;;1.35;1.25;;;;;;;;;;5036360;28;20025;-32
2022/10/24 02:50:59;;;;;;;1.58;1.40;;;;;;;;;;5036354;28;20083;-31
2022/10/24 02:53:26;;;;;;;1.45;1.35;;;;;;;;;;5036141;28;20040;-33
2022/10/24 02:55:52;;;;;;;2.25;1.20;;;;;;;;;;5036247;28;20491;-32
2022/10/24 02:58:18;;;;;;;1.25;1.10;;;;;;;;;;5036144;28;20029;-31
2022/10/24 03:00:45;;;;;;;1.30;1.20;;;;;;;;;;5036028;28;20053;-31
2022/10/24 03:03:11;;;;;;;1.33;1.23;;;;;;;;;;5035967;28;20021;-34
2022/10/24 03:05:37;;;;;;;1.35;1.17;;;;;;;;;;5035856;28;20061;-34
2022/10/24 03:08:03;;;;;;;1.35;1.25;;;;;;;;;;5036240;28;20417;-30
2022/10/24 03:10:29;;;;;;;1.35;1.25;;;;;;;;;;5036195;28;20056;-30
2022/10/24 03:12:55;;;;;;;1.20;1.20;;;;;;;;;;5035825;28;20468;-31
2022/10/24 03:15:22;;;;;;;1.10;1.10;;;;;;;;;;5035869;28;20470;-32
2022/10/24 03:17:48;;;;;;;1.30;1.20;;;;;;;;;;5036092;28;20135;-32
2022/10/24 03:20:14;;;;;;;1.20;1.00;;;;;;;;;;5035979;28;20025;-30
2022/10/24 03:22:41;;;;;;;1.30;1.20;;;;;;;;;;5035804;28;20515;-31
2022/10/24 03:25:07;;;;;;;1.20;1.10;;;;;;;;;;5035666;28;20025;-31
2022/10/24 03:27:34;;;;;;;1.00;1.00;;;;;;;;;;5035898;28;20373;-32
2022/10/24 03:30:00;;;;;;;1.92;1.25;;;;;;;;;;5036111;28;20104;-30
2022/10/24 03:32:27;;;;;;;1.30;1.20;;;;;;;;;;5035488;28;20441;-30
2022/10/24 03:34:53;;;;;;;1.40;1.30;;;;;;;;;;5035743;28;20025;-34
2022/10/24 03:37:19;;;;;;;1.55;1.20;;;;;;;;;;5035423;28;20021;-33
2022/10/24 03:39:46;;;;;;;0.90;0.90;;;;;;;;;;5018039;28;20452;-34
2022/10/24 03:42:12;;;;;;;6.88;1.52;;;;;;;;;;5035610;28;20032;-32
2022/10/24 03:44:38;;;;;;;1.02;1.00;;;;;;;;;;5035353;28;20095;-34
2022/10/24 03:47:04;;;;;;;1.88;1.38;;;;;;;;;;5017913;28;20036;-31
2022/10/24 03:49:31;;;;;;;0.93;0.93;;;;;;;;;;5035205;28;20034;-32
2022/10/24 03:51:57;;;;;;;1.38;1.20;;;;;;;;;;5035157;28;20069;-33
2022/10/24 03:54:23;;;;;;;1.77;1.67;;;;;;;;;;5035107;28;20025;-32
2022/10/24 03:56:50;;;;;;;1.40;1.30;;;;;;;;;;5035357;28;20029;-31
2022/10/24 03:59:16;;;;;;;1.38;1.27;;;;;;;;;;5035021;28;20053;-33
2022/10/24 04:01:42;;;;;;;2.47;2.28;;;;;;;;;;5017471;28;20037;-32
2022/10/24 04:04:08;;;;;;;2.25;1.35;;;;;;;;;;5034724;28;20043;-32
2022/10/24 04:06:34;;;;;;;1.20;1.20;;;;;;;;;;5034860;28;20453;-31
2022/10/24 04:09:00;;;;;;;1.20;1.10;;;;;;;;;;5034194;28;20041;-32
2022/10/24 04:11:27;;;;;;;1.60;1.50;;;;;;;;;;5034701;28;20364;-34
2022/10/24 04:13:53;;;;;;;1.52;1.40;;;;;;;;;;5034526;28;20087;-32
2022/10/24 04:16:20;;;;;;;1.25;1.02;;;;;;;;;;5034612;28;20037;-31
2022/10/24 04:18:46;;;;;;;1.75;1.42;;;;;;;;;;5035020;28;20096;-33
2022/10/24 04:21:12;;;;;;;1.35;1.25;;;;;;;;;;5034473;28;20033;-32
2022/10/24 04:23:40;;;;;;;1.20;1.10;;;;;;;;;;5034469;28;20025;-31
2022/10/24 04:26:09;;;;;;;1.60;1.50;;;;;;;;;;5034512;28;20014;-32
2022/10/24 04:28:35;;;;;;;1.05;1.05;;;;;;;;;;5034733;28;20045;-31
2022/10/24 04:31:01;;;;;;;1.38;1.23;;;;;;;;;;5034396;28;20040;-32
2022/10/24 04:33:27;;;;;;;1.05;1.05;;;;;;;;;;5034574;28;20033;-33
2022/10/24 04:35:54;;;;;;;1.00;1.00;;;;;;;;;;5034650;28;20021;-32
2022/10/24 04:38:21;;;;;;;1.73;1.15;;;;;;;;;;5034253;28;20109;-33
2022/10/24 04:40:51;;;;;;;5.72;1.48;;;;;;;;;;5034759;28;20080;-32
2022/10/24 04:43:17;;;;;;;1.50;1.20;;;;;;;;;;5034520;28;20029;-34
2022/10/24 04:45:43;;;;;;;1.70;1.40;;;;;;;;;;5034722;28;20027;-34
2022/10/24 04:48:10;;;;;;;2.20;1.80;;;;;;;;;;5034481;28;20057;-32
2022/10/24 04:50:36;;;;;;;1.40;1.30;;;;;;;;;;5034237;28;20029;-33
2022/10/24 04:53:02;;;;;;;1.42;1.27;;;;;;;;;;5034077;28;20057;-31
2022/10/24 04:55:28;;;;;;;1.48;1.17;;;;;;;;;;5034448;28;20029;-34
2022/10/24 04:57:54;;;;;;;1.48;1.38;;;;;;;;;;5034106;28;20037;-34
2022/10/24 05:00:21;;;;;;;1.58;1.40;;;;;;;;;;5034144;28;20075;-35
2022/10/24 05:02:47;;;;;;;3.97;1.40;;;;;;;;;;5034170;28;20048;-35
2022/10/24 05:05:13;;;;;;;4.63;2.20;;;;;;;;;;5033918;28;20495;-33
2022/10/24 05:07:39;;;;;;;2.38;1.95;;;;;;;;;;5033999;28;20048;-31
2022/10/24 05:10:06;;;;;;;1.48;1.38;;;;;;;;;;5034047;28;20100;-31
2022/10/24 05:12:32;;;;;;;4.22;1.42;;;;;;;;;;5033955;28;20035;-33
2022/10/24 05:14:58;;;;;;;3.83;1.98;;;;;;;;;;5033938;28;20131;-33
2022/10/24 05:17:24;;;;;;;1.48;1.38;;;;;;;;;;5016433;28;20036;-32
2022/10/24 05:19:50;;;;;;;1.73;1.63;;;;;;;;;;5034366;28;20022;-32
2022/10/24 05:22:16;;;;;;;1.10;1.08;;;;;;;;;;5037548;28;20022;-35
2022/10/24 05:24:42;;;;;;;2.60;1.55;;;;;;;;;;5037549;28;20034;-31
2022/10/24 05:27:08;;;;;;;7.32;1.60;;;;;;;;;;5037431;28;20100;-33
2022/10/24 05:29:35;;;;;;;1.83;1.35;;;;;;;;;;5020158;28;20097;-32
2022/10/24 05:32:01;;;;;;;3.65;1.42;;;;;;;;;;5037420;28;20033;-31
2022/10/24 05:34:27;;;;;;;1.15;1.15;;;;;;;;;;5037935;28;20034;-31
2022/10/24 05:36:53;;;;;;;4.22;1.55;;;;;;;;;;5037643;28;20049;-32
2022/10/24 05:39:20;;;;;;;2.42;1.23;;;;;;;;;;5037389;28;20032;-33
2022/10/24 05:41:46;;;;;;;1.30;0.90;;;;;;;;;;5037109;28;20068;-34
2022/10/24 05:44:12;;;;;;;4.57;2.08;;;;;;;;;;5037203;28;20024;-33
2022/10/24 05:46:38;;;;;;;2.85;1.48;;;;;;;;;;5037526;28;20160;-33
2022/10/24 05:49:05;;;;;;;2.22;1.90;;;;;;;;;;5037458;28;20436;-32
2022/10/24 05:51:31;;;;;;;1.70;1.35;;;;;;;;;;5037354;28;20060;-32
2022/10/24 05:53:58;;;;;;;1.80;1.45;;;;;;;;;;5037034;28;20484;-33
2022/10/24 05:56:24;;;;;;;4.85;1.98;;;;;;;;;;5037333;28;20025;-32
2022/10/24 05:58:50;;;;;;;3.25;1.70;;;;;;;;;;5036992;28;20480;-33
2022/10/24 06:03:59;;;;;;;4.93;2.30;;;;;;;;;;5063946;22;20119;-26
2022/10/24 06:06:25;;;;;;;2.03;1.60;;;;;;;;;;4999756;28;20026;-27
2022/10/24 06:08:51;;;;;;;2.17;1.63;;;;;;;;;;5017226;28;20025;-27
2022/10/24 06:11:18;;;;;;;5.85;1.60;;;;;;;;;;5017170;28;20044;-27
2022/10/24 06:13:44;;;;;;;3.28;1.90;;;;;;;;;;5016737;28;20041;-27
2022/10/24 06:16:11;;;;;;;3.05;1.60;;;;;;;;;;5016883;28;20030;-27
2022/10/24 06:18:37;;;;;;;2.90;2.20;;;;;;;;;;5017142;28;20384;-27
2022/10/24 06:21:05;;;;;;;9.35;1.63;;;;;;;;;;5016722;28;20026;-27
2022/10/24 06:23:31;;;;;;;1.83;1.40;;;;;;;;;;5016989;28;20042;-27
2022/10/24 06:25:57;;;;;;;6.28;1.90;;;;;;;;;;5017085;28;20326;-27
2022/10/24 06:28:24;;;;;;;8.32;1.52;;;;;;;;;;5016710;28;20356;-27
2022/10/24 06:30:50;;;;;;;2.67;2.28;;;;;;;;;;5016929;28;20374;-27
2022/10/24 06:33:17;;;;;;;8.98;1.23;;;;;;;;;;5015858;28;20034;-27
2022/10/24 06:35:43;;;;;;;5.65;1.77;;;;;;;;;;5016845;28;20079;-27
2022/10/24 06:38:09;;;;;;;4.55;1.50;;;;;;;;;;5017023;28;20033;-27
2022/10/24 06:40:41;;;;;;;5.88;1.88;;;;;;;;;;5016442;28;20097;-27
2022/10/24 06:43:08;;;;;;;1.48;1.38;;;;;;;;;;5016382;28;20025;-27
2022/10/24 06:45:34;;;;;;;6.45;1.58;;;;;;;;;;5016309;28;20022;-27
2022/10/24 06:48:00;;;;;;;2.90;1.77;;;;;;;;;;5016329;28;20165;-27
2022/10/24 06:50:26;;;;;;;4.88;2.13;;;;;;;;;;5016841;28;20053;-27
2022/10/24 06:52:52;;;;;;;6.30;1.90;;;;;;;;;;5016141;28;20034;-27
2022/10/24 06:55:18;;;;;;;3.92;2.17;;;;;;;;;;5016408;28;20030;-27
2022/10/24 06:57:45;;;;;;;4.25;1.80;;;;;;;;;;5016119;28;20026;-27
2022/10/24 07:00:13;;;;;;;6.80;2.28;;;;;;;;;;5016294;28;20041;-27
2022/10/24 07:02:39;;;;;;;7.78;1.80;;;;;;;;;;5015824;28;20046;-27
2022/10/24 07:05:08;;;;;;;3.95;2.00;;;;;;;;;;4998832;28;20032;-27
2022/10/24 07:07:34;;;;;;;5.20;2.17;;;;;;;;;;5015982;28;20034;-27
2022/10/24 07:10:00;;;;;;;4.75;1.60;;;;;;;;;;5015997;28;20030;-26
2022/10/24 07:12:26;;;;;;;5.38;1.98;;;;;;;;;;5016089;28;20341;-26
2022/10/24 07:14:52;;;;;;;12.50;1.70;;;;;;;;;;4998509;28;20053;-26
2022/10/24 07:17:20;;;;;;;2.25;1.52;;;;;;;;;;5015704;28;20361;-27
2022/10/24 07:19:51;;;;;;;3.80;2.00;;;;;;;;;;5015606;28;20342;-27
2022/10/24 07:22:17;;;;;;;;;;;;;;;;;;5015910;28;20432;-26
2022/10/24 07:24:44;;;;;;;10.48;1.85;;;;;;;;;;5015612;28;19960;-26
2022/10/24 07:27:11;;;;;;;3.35;2.20;;;;;;;;;;5016618;28;20029;-26
2022/10/24 07:29:38;;;;;;;9.45;1.88;;;;;;;;;;5015430;28;20038;-26
2022/10/24 07:32:05;;;;;;;4.68;2.05;;;;;;;;;;5015334;28;20475;-26
2022/10/24 07:34:31;;;;;;;7.38;2.00;;;;;;;;;;5015474;28;20029;-26
2022/10/24 07:36:57;;;;;;;3.97;2.28;;;;;;;;;;5015688;28;20079;-26
2022/10/24 07:39:23;;;;;;;4.35;1.90;;;;;;;;;;5015282;28;20026;-26
2022/10/24 07:41:49;;;;;;;5.22;2.13;;;;;;;;;;5015119;28;20030;-26
2022/10/24 07:44:16;;;;;;;1.92;1.75;;;;;;;;;;5014301;28;20101;-26
2022/10/24 07:46:42;;;;;;;1.77;1.63;;;;;;;;;;5015457;28;20101;-27
2022/10/24 07:49:08;;;;;;;8.05;2.13;;;;;;;;;;5015313;28;20034;-27
2022/10/24 07:51:34;;;;;;;15.60;2.20;;;;;;;;;;5015240;28;20081;-27
2022/10/24 07:54:00;;;;;;;4.93;1.83;;;;;;;;;;5015157;28;20029;-27
2022/10/24 07:56:27;;;;;;;2.38;1.80;;;;;;;;;;5015359;28;20116;-27
2022/10/24 07:58:54;;;;;;;7.93;1.83;;;;;;;;;;5015119;28;20124;-27
2022/10/24 08:01:25;;;;;;;7.28;2.67;;;;;;;;;;5015209;28;20034;-27
2022/10/24 08:03:51;;;;;;;18.03;3.10;;;;;;;;;;5014704;28;20119;-27
2022/10/24 08:06:19;;;;;;;3.85;2.05;;;;;;;;;;5014783;28;20037;-27
2022/10/24 08:08:46;;;;;;;6.22;2.47;;;;;;;;;;5014837;28;20026;-27
2022/10/24 08:11:14;;;;;;;8.32;2.10;;;;;;;;;;5014783;28;20026;-27
2022/10/24 08:13:40;;;;;;;6.30;2.00;;;;;;;;;;5014952;28;20061;-27
2022/10/24 08:16:07;;;;;;;8.88;2.10;;;;;;;;;;5014692;28;20022;-26
2022/10/24 08:18:34;;;;;;;6.60;2.22;;;;;;;;;;5014712;28;20030;-26
2022/10/24 08:21:01;;;;;;;8.18;2.67;;;;;;;;;;5014806;28;20114;-26
2022/10/24 08:23:28;;;;;;;6.38;2.33;;;;;;;;;;5015249;28;20060;-26
2022/10/24 08:25:54;;;;;;;9.48;2.33;;;;;;;;;;5014865;28;20022;-26
2022/10/24 08:28:22;;;;;;;10.95;2.25;;;;;;;;;;5014775;28;20056;-26
2022/10/24 08:30:55;;;;;;;11.02;2.65;;;;;;;;;;5014431;28;20022;-26
2022/10/24 08:33:21;;;;;;;7.22;1.85;;;;;;;;;;5014605;28;20042;-26
2022/10/24 08:35:47;;;;;;;5.60;2.20;;;;;;;;;;5014387;28;20119;-26
2022/10/24 08:38:13;;;;;;;8.63;2.05;;;;;;;;;;5014767;28;20333;-26
2022/10/24 08:40:40;;;;;;;7.75;1.98;;;;;;;;;;5014552;28;20041;-26
2022/10/24 08:43:06;;;;;;;10.95;2.67;;;;;;;;;;5014214;28;20022;-26
2022/10/24 08:45:38;;;;;;;7.32;2.35;;;;;;;;;;5014342;28;20041;-26
2022/10/24 08:48:06;;;;;;;6.25;1.90;;;;;;;;;;5014259;28;20099;-26
2022/10/24 08:50:35;;;;;;;3.63;2.10;;;;;;;;;;5014213;28;20041;-26
2022/10/24 08:53:04;;;;;;;5.13;2.38;;;;;;;;;;5014167;28;20030;-26
2022/10/24 08:55:43;;;;;;;5.68;2.42;;;;;;;;;;5015592;28;20026;-26
2022/10/24 08:58:17;;;;;;;7.18;2.13;;;;;;;;;;5018498;28;20037;-26
2022/10/24 09:00:44;;;;;;;7.07;2.55;;;;;;;;;;5018111;28;20092;-26
2022/10/24 09:03:25;;;;;;;18.95;4.10;;;;;;;;;;5017818;28;20124;-26
2022/10/24 09:05:56;;;;;;;9.70;2.42;;;;;;;;;;5018084;28;20117;-26
2022/10/24 09:08:22;;;;;;;;;;;;;;;;;;5018725;28;20032;-26
2022/10/24 09:10:53;;;;;;;5.90;2.72;;;;;;;;;;5018039;28;19995;-26
2022/10/24 09:13:22;;;;;;;8.55;2.28;;;;;;;;;;5018191;28;20041;-26
2022/10/24 09:15:49;;;;;;;9.43;2.13;;;;;;;;;;5017934;28;20130;-26
2022/10/24 09:18:30;;;;;;;7.00;2.20;;;;;;;;;;5017769;28;20032;-26
2022/10/24 09:20:56;;;;;;;;;;;;;;;;;;5018580;28;20115;-26
2022/10/24 09:23:24;;;;;;;13.13;3.75;;;;;;;;;;5017657;28;19909;-26
2022/10/24 09:25:55;;;;;;;15.82;2.67;;;;;;;;;;5018086;28;20108;-26
2022/10/24 09:28:21;;;;;;;5.95;2.20;;;;;;;;;;5017903;28;20034;-27
2022/10/24 09:30:48;;;;;;;10.85;3.13;;;;;;;;;;5017849;28;20026;-26
2022/10/24 09:33:23;;;;;;;8.27;2.38;;;;;;;;;;5017401;28;20021;-27
2022/10/24 09:35:50;;;;;;;8.30;2.60;;;;;;;;;;5017751;28;20030;-27
2022/10/24 09:38:24;;;;;;;8.27;2.63;;;;;;;;;;5017734;28;20168;-27
2022/10/24 09:40:54;;;;;;;4.38;2.20;;;;;;;;;;5017623;28;20353;-26
2022/10/24 09:43:23;;;;;;;11.85;2.72;;;;;;;;;;5017297;28;20033;-27
2022/10/24 09:46:01;;;;;;;12.35;2.83;;;;;;;;;;5000037;28;20022;-27
2022/10/24 09:48:35;;;;;;;7.15;2.13;;;;;;;;;;5017533;28;20040;-27
2022/10/24 09:51:02;;;;;;;7.68;3.20;;;;;;;;;;5017507;28;20044;-27
2022/10/24 09:53:36;;;;;;;10.23;2.38;;;;;;;;;;5017180;28;20034;-26
2022/10/24 09:56:10;;;;;;;12.48;2.95;;;;;;;;;;5017426;28;20036;-27
2022/10/24 09:58:36;;;;;;;5.82;2.35;;;;;;;;;;5017583;28;20089;-27
2022/10/24 10:01:19;;;;;;;6.10;2.22;;;;;;;;;;5016898;28;20034;-27
2022/10/24 10:04:00;;;;;;;8.55;2.75;;;;;;;;;;5016831;28;20088;-27
2022/10/24 10:06:26;;;;;;;9.77;3.10;;;;;;;;;;5016786;28;20298;-27
2022/10/24 10:08:56;;;;;;;12.55;3.20;;;;;;;;;;5017076;28;20045;-27
2022/10/24 10:11:30;;;;;;;9.82;1.95;;;;;;;;;;5016884;28;20397;-27
2022/10/24 10:13:58;;;;;;;11.80;2.63;;;;;;;;;;5016984;28;20033;-26
2022/10/24 10:16:32;;;;;;;8.32;2.40;;;;;;;;;;5017093;28;20044;-27
2022/10/24 10:19:12;;;;;;;25.77;4.05;;;;;;;;;;5016670;28;20531;-27
2022/10/24 10:21:57;;;;;;;17.90;2.70;;;;;;;;;;5016912;28;20042;-27
2022/10/24 10:24:42;;;;;;;10.35;2.50;;;;;;;;;;5016729;28;20030;-27
2022/10/24 10:27:29;;;;;;;12.85;3.70;;;;;;;;;;5016945;28;20041;-27
2022/10/24 10:30:13;;;;;;;14.02;3.22;;;;;;;;;;5016515;28;20034;-26
2022/10/24 10:32:58;;;;;;;20.63;3.88;;;;;;;;;;5016655;28;20032;-27
2022/10/24 10:35:27;;;;;;;12.70;3.03;;;;;;;;;;5016837;28;20100;-27
2022/10/24 10:38:05;;;;;;;17.42;3.03;;;;;;;;;;5016497;28;20029;-27
2022/10/24 10:40:44;;;;;;;10.90;2.90;;;;;;;;;;5016597;28;20124;-26
2022/10/24 10:43:22;;;;;;;9.70;2.50;;;;;;;;;;5016572;28;20026;-26
2022/10/24 10:46:06;;;;;;;14.45;3.08;;;;;;;;;;5016824;28;20022;-27
2022/10/24 10:48:38;;;;;;;13.52;3.40;;;;;;;;;;5016250;28;20053;-26
2022/10/24 10:51:15;;;;;;;18.27;3.00;;;;;;;;;;5016521;28;20338;-26
2022/10/24 10:53:50;;;;;;;11.23;2.65;;;;;;;;;;5016600;28;20033;-26
2022/10/24 10:56:35;;;;;;;14.55;2.50;;;;;;;;;;5016080;28;20081;-26
2022/10/24 10:59:04;;;;;;;11.40;2.60;;;;;;;;;;5016462;28;20386;-26
2022/10/24 11:01:30;;;;;;;15.68;2.70;;;;;;;;;;5016934;28;20048;-26
2022/10/24 11:04:00;;;;;;;21.83;3.63;;;;;;;;;;5015709;28;20373;-26
2022/10/24 11:06:26;;;;;;;15.13;3.85;;;;;;;;;;5015954;28;20037;-26
2022/10/24 11:08:52;;;;;;;24.58;3.95;;;;;;;;;;5015790;28;20116;-26
2022/10/24 11:11:22;;;;;;;27.20;3.47;;;;;;;;;;5015764;28;20453;-26
2022/10/24 11:13:56;;;;;;;21.48;4.00;;;;;;;;;;5015699;28;20030;-26
2022/10/24 11:16:26;;;;;;;11.93;2.58;;;;;;;;;;5016006;28;20026;-26
2022/10/24 11:18:53;;;;;;;12.20;3.35;;;;;;;;;;5015456;28;20034;-26
2022/10/24 11:21:22;;;;;;;7.90;2.28;;;;;;;;;;5015555;28;20037;-26
2022/10/24 11:24:01;;;;;;;19.75;3.67;;;;;;;;;;5015564;28;20080;-27
2022/10/24 11:26:35;;;;;;;19.75;3.17;;;;;;;;;;5015518;28;20060;-27
2022/10/24 11:29:04;;;;;;;11.13;3.90;;;;;;;;;;5015502;28;20030;-27
2022/10/24 11:31:52;;;;;;;30.83;3.53;;;;;;;;;;5015912;28;20085;-27
2022/10/24 11:34:25;;;;;;;15.10;3.13;;;;;;;;;;5015613;28;20081;-27
2022/10/24 11:37:02;;;;;;;33.88;3.97;;;;;;;;;;5015380;28;20052;-27
2022/10/24 11:39:31;;;;;;;17.55;4.43;;;;;;;;;;5015593;28;20025;-27
2022/10/24 11:42:15;;;;;;;13.52;3.65;;;;;;;;;;5015107;28;20030;-27
2022/10/24 11:44:46;;;;;;;12.15;2.92;;;;;;;;;;5015441;28;20098;-27
2022/10/24 11:47:30;;;;;;;29.95;7.45;;;;;;;;;;5015086;28;20113;-27
2022/10/24 11:50:06;;;;;;;8.68;2.80;;;;;;;;;;5015349;28;20022;-27
2022/10/24 11:52:34;;;;;;;23.30;2.95;;;;;;;;;;5014984;28;20100;-27
2022/10/24 11:55:20;;;;;;;18.92;3.85;;;;;;;;;;5015266;28;20042;-27
2022/10/24 11:57:50;;;;;;;21.35;3.13;;;;;;;;;;5015270;28;20095;-26
2022/10/24 12:00:19;;;;;;;19.15;4.90;;;;;;;;;;5015081;28;20394;-27
2022/10/24 12:02:46;;;;;;;22.45;3.35;;;;;;;;;;5014759;28;20077;-26
2022/10/24 12:05:18;;;;;;;10.25;3.03;;;;;;;;;;5014928;28;20038;-27
2022/10/24 12:08:25;;;;;;;16.60;4.28;;;;;;;;;;5015163;28;20046;-26
2022/10/24 12:11:01;;;;;;;16.42;3.00;;;;;;;;;;4935707;29;20043;-26
2022/10/24 12:13:33;;;;;;;15.60;3.90;;;;;;;;;;4935742;29;20095;-27
2022/10/24 12:16:16;;;;;;;10.35;3.22;;;;;;;;;;4983212;28;20084;-27
2022/10/24 12:18:50;;;;;;;22.50;4.00;;;;;;;;;;5015088;28;20356;-27
2022/10/24 12:21:20;;;;;;;15.00;3.40;;;;;;;;;;5014981;28;20076;-27
2022/10/24 12:24:00;;;;;;;13.57;2.53;;;;;;;;;;5014624;28;20101;-27
2022/10/24 12:26:34;;;;;;;15.95;3.10;;;;;;;;;;5014578;28;20060;-26
2022/10/24 12:29:07;;;;;;;14.25;2.90;;;;;;;;;;5014765;28;20026;-26
2022/10/24 12:31:37;;;;;;;10.70;2.88;;;;;;;;;;5013992;28;20345;-26
2022/10/24 12:34:18;;;;;;;12.73;3.42;;;;;;;;;;5014213;28;20037;-26
2022/10/24 12:37:19;;;;;;;11.73;2.47;;;;;;;;;;5014462;28;20034;-27
2022/10/24 12:39:47;;;;;;;9.13;2.65;;;;;;;;;;4919447;29;20442;-27
2022/10/24 12:42:36;;;;;;;17.95;4.25;;;;;;;;;;4999151;28;20388;-27
2022/10/24 12:45:07;;;;;;;5.03;2.63;;;;;;;;;;5014715;28;20030;-26
2022/10/24 12:47:36;;;;;;;14.63;3.38;;;;;;;;;;5014198;28;20060;-27
2022/10/24 12:50:20;;;;;;;10.38;3.13;;;;;;;;;;5014930;28;20038;-26
2022/10/24 12:52:46;;;;;;;20.75;3.20;;;;;;;;;;5014233;28;20077;-26
2022/10/24 12:55:28;;;;;;;16.95;3.72;;;;;;;;;;5014667;28;20396;-26
2022/10/24 12:57:55;;;;;;;8.93;3.50;;;;;;;;;;5014391;28;20025;-26
2022/10/24 13:00:26;;;;;;;10.80;2.72;;;;;;;;;;5014148;28;20026;-27
2022/10/24 13:03:05;;;;;;;15.10;3.15;;;;;;;;;;5014033;28;20198;-26
2022/10/24 13:05:39;;;;;;;10.02;2.88;;;;;;;;;;5014281;28;20064;-26
2022/10/24 13:08:21;;;;;;;16.38;2.95;;;;;;;;;;5014259;28;20082;-26
2022/10/24 13:10:53;;;;;;;7.75;2.50;;;;;;;;;;5014380;28;20026;-27
2022/10/24 13:13:38;;;;;;;11.38;2.88;;;;;;;;;;5014337;28;20368;-27
2022/10/24 13:16:27;;;;;;;9.80;2.78;;;;;;;;;;4997135;28;20057;-27
2022/10/24 13:19:02;;;;;;;15.75;4.65;;;;;;;;;;5004139;28;20042;-28
2022/10/24 13:21:33;;;;;;;13.13;3.10;;;;;;;;;;5014570;28;20030;-27
2022/10/24 13:24:18;;;;;;;14.03;3.30;;;;;;;;;;5014384;28;20386;-27
2022/10/24 13:26:46;;;;;;;13.32;2.67;;;;;;;;;;5014606;28;20287;-26
2022/10/24 13:29:15;;;;;;;13.05;3.53;;;;;;;;;;5014296;28;20054;-26
2022/10/24 13:31:44;;;;;;;16.77;3.45;;;;;;;;;;5014430;28;20042;-26
2022/10/24 13:34:16;;;;;;;17.55;2.70;;;;;;;;;;5014322;28;20041;-26
2022/10/24 13:36:43;;;;;;;22.02;3.42;;;;;;;;;;5014501;28;20088;-26
2022/10/24 13:39:11;;;;;;;13.68;2.95;;;;;;;;;;5014138;28;20478;-27
2022/10/24 13:41:58;;;;;;;17.20;3.40;;;;;;;;;;5015611;28;20060;-27
2022/10/24 13:44:36;;;;;;;16.52;3.05;;;;;;;;;;5018334;28;20056;-27
2022/10/24 13:47:21;;;;;;;21.98;5.05;;;;;;;;;;5017742;28;20033;-27
2022/10/24 13:50:07;;;;;;;12.40;3.38;;;;;;;;;;5017667;28;20022;-27
2022/10/24 13:52:45;;;;;;;18.35;3.58;;;;;;;;;;5004132;28;20037;-27
2022/10/24 13:55:11;;;;;;;18.80;2.85;;;;;;;;;;5017525;28;20032;-27
2022/10/24 13:57:49;;;;;;;12.80;4.15;;;;;;;;;;5018017;28;20029;-27
2022/10/24 14:00:23;;;;;;;7.53;3.67;;;;;;;;;;5017671;28;20022;-26
2022/10/24 14:02:50;;;;;;;11.00;3.13;;;;;;;;;;5017408;28;20046;-27
2022/10/24 14:05:23;;;;;;;16.13;3.20;;;;;;;;;;5017736;28;20033;-27
2022/10/24 14:07:49;;;;;;;16.45;5.22;;;;;;;;;;5017772;28;20033;-27
2022/10/24 14:10:16;;;;;;;15.65;2.55;;;;;;;;;;5017389;28;20030;-27
2022/10/24 14:12:43;;;;;;;18.25;3.25;;;;;;;;;;5017132;28;20030;-27
2022/10/24 14:15:17;;;;;;;12.15;2.45;;;;;;;;;;5017238;28;20057;-27
2022/10/24 14:17:53;;;;;;;18.10;3.70;;;;;;;;;;5017686;28;20026;-27
2022/10/24 14:20:23;;;;;;;14.63;5.05;;;;;;;;;;5017046;28;20034;-27
2022/10/24 14:22:50;;;;;;;22.27;3.88;;;;;;;;;;5017047;28;20125;-27
2022/10/24 14:25:22;;;;;;;15.40;3.05;;;;;;;;;;5017090;28;20022;-27
2022/10/24 14:27:48;;;;;;;23.65;4.57;;;;;;;;;;5017023;28;20088;-27
2022/10/24 14:30:22;;;;;;;18.88;2.92;;;;;;;;;;5017263;28;20108;-27
2022/10/24 14:32:48;;;;;;;19.42;3.63;;;;;;;;;;5017067;28;20052;-27
2022/10/24 14:35:15;;;;;;;15.40;3.33;;;;;;;;;;5016868;28;20445;-27
2022/10/24 14:37:42;;;;;;;19.88;3.53;;;;;;;;;;5017339;28;20445;-26
2022/10/24 14:40:16;;;;;;;9.98;3.00;;;;;;;;;;5017041;28;20156;-26
2022/10/24 14:42:43;;;;;;;14.50;3.28;;;;;;;;;;5016691;28;20029;-26
2022/10/24 14:45:23;;;;;;;7.10;3.03;;;;;;;;;;5016706;28;20046;-26
2022/10/24 14:47:53;;;;;;;15.95;3.65;;;;;;;;;;5016829;28;20392;-27
2022/10/24 14:50:39;;;;;;;10.55;3.55;;;;;;;;;;5016951;28;20044;-27
2022/10/24 14:53:06;;;;;;;12.68;3.70;;;;;;;;;;5015834;28;20030;-27
2022/10/24 14:55:32;;;;;;;12.23;3.25;;;;;;;;;;5017450;28;20109;-27
2022/10/24 14:57:59;;;;;;;10.20;3.13;;;;;;;;;;5017022;28;20062;-27
2022/10/24 15:00:39;;;;;;;14.52;3.60;;;;;;;;;;5016150;28;20053;-26